sensor_id;sensor_type;location;lat;lon;timestamp;P1;durP1;ratioP1;P2;durP2;ratioP2
55933;SDS011;41839;41.386;2.082;2023-04-03T10:46:23;1161.43;;;916.50;;
55933;SDS011;41839;41.386;2.082;2023-04-03T10:57:14;1139.05;;;870.92;;
55933;SDS011;41839;41.386;2.082;2023-04-03T11:02:29;1148.97;;;895.38;;
55933;SDS011;41839;41.386;2.082;2023-04-03T11:05:04;1148.05;;;883.28;;
55933;SDS011;41839;41.386;2.082;2023-04-03T11:07:38;1147.97;;;898.85;;
55933;SDS011;41839;41.386;2.082;2023-04-03T11:10:13;1143.05;;;899.30;;
55933;SDS011;41839;41.386;2.082;2023-04-03T11:12:46;1144.43;;;885.90;;
55933;SDS011;41839;41.386;2.082;2023-04-03T11:15:17;1143.70;;;903.60;;
55933;SDS011;41839;41.386;2.082;2023-04-03T11:22:43;1136.55;;;906.40;;
55933;SDS011;41839;41.386;2.082;2023-04-03T11:33:21;1142.38;;;903.80;;
55933;SDS011;41839;41.386;2.082;2023-04-03T11:38:45;1141.15;;;869.20;;
55933;SDS011;41839;41.386;2.082;2023-04-03T11:41:12;1148.80;;;883.80;;
55933;SDS011;41839;41.386;2.082;2023-04-03T11:43:42;1167.47;;;883.38;;
55933;SDS011;41839;41.386;2.082;2023-04-03T11:46:22;1154.85;;;844.42;;
55933;SDS011;41839;41.386;2.082;2023-04-03T11:49:19;1155.55;;;848.40;;
55933;SDS011;41839;41.386;2.082;2023-04-03T11:52:11;1146.60;;;844.70;;
55933;SDS011;41839;41.386;2.082;2023-04-03T12:05:58;1139.38;;;808.97;;
55933;SDS011;41839;41.386;2.082;2023-04-03T12:13:40;1151.18;;;820.38;;
55933;SDS011;41839;41.386;2.082;2023-04-03T12:45:41;1103.32;;;820.35;;
55933;SDS011;41839;41.386;2.082;2023-04-03T12:48:27;1139.25;;;807.92;;
55933;SDS011;41839;41.386;2.082;2023-04-03T12:50:55;1140.97;;;808.25;;
55933;SDS011;41839;41.386;2.082;2023-04-03T12:53:31;1138.63;;;798.13;;
55933;SDS011;41839;41.386;2.082;2023-04-03T12:59:13;1149.45;;;802.03;;
55933;SDS011;41839;41.386;2.082;2023-04-03T13:01:39;1157.15;;;809.95;;
55933;SDS011;41839;41.386;2.082;2023-04-03T13:04:05;1153.63;;;803.85;;
55933;SDS011;41839;41.386;2.082;2023-04-03T13:06:32;1146.93;;;799.63;;
55933;SDS011;41839;41.386;2.082;2023-04-03T13:09:14;1148.78;;;809.58;;
55933;SDS011;41839;41.386;2.082;2023-04-03T13:11:56;1140.60;;;798.20;;
55933;SDS011;41839;41.386;2.082;2023-04-03T13:14:25;1150.70;;;809.60;;
55933;SDS011;41839;41.386;2.082;2023-04-03T13:19:28;1158.30;;;795.85;;
55933;SDS011;41839;41.386;2.082;2023-04-03T13:21:59;1152.30;;;796.72;;
55933;SDS011;41839;41.386;2.082;2023-04-03T13:24:29;1142.10;;;797.95;;
55933;SDS011;41839;41.386;2.082;2023-04-03T13:26:57;1145.47;;;812.35;;
55933;SDS011;41839;41.386;2.082;2023-04-03T13:29:31;1141.13;;;797.63;;
55933;SDS011;41839;41.386;2.082;2023-04-03T13:32:00;1144.03;;;808.63;;
55933;SDS011;41839;41.386;2.082;2023-04-03T13:34:28;1153.68;;;813.42;;
55933;SDS011;41839;41.386;2.082;2023-04-03T13:37:00;1156.80;;;809.85;;
55933;SDS011;41839;41.386;2.082;2023-04-03T13:39:33;1134.50;;;790.47;;
55933;SDS011;41839;41.386;2.082;2023-04-03T13:42:00;1147.60;;;807.28;;
55933;SDS011;41839;41.386;2.082;2023-04-03T13:44:39;1169.82;;;809.40;;
55933;SDS011;41839;41.386;2.082;2023-04-03T13:47:19;1145.88;;;816.15;;
55933;SDS011;41839;41.386;2.082;2023-04-03T13:57:52;1153.30;;;790.70;;
55933;SDS011;41839;41.386;2.082;2023-04-03T14:01:06;1156.57;;;811.33;;
55933;SDS011;41839;41.386;2.082;2023-04-03T14:03:50;1152.30;;;806.55;;
55933;SDS011;41839;41.386;2.082;2023-04-03T14:06:17;1152.88;;;810.90;;
55933;SDS011;41839;41.386;2.082;2023-04-03T14:08:43;1167.40;;;794.63;;
55933;SDS011;41839;41.386;2.082;2023-04-03T14:11:22;1170.60;;;801.73;;
55933;SDS011;41839;41.386;2.082;2023-04-03T14:16:14;1142.20;;;796.28;;
55933;SDS011;41839;41.386;2.082;2023-04-03T14:18:42;1141.93;;;795.75;;
55933;SDS011;41839;41.386;2.082;2023-04-03T14:21:30;1143.35;;;801.72;;
55933;SDS011;41839;41.386;2.082;2023-04-03T14:23:56;1148.40;;;809.50;;
55933;SDS011;41839;41.386;2.082;2023-04-03T14:26:22;1143.28;;;808.15;;
55933;SDS011;41839;41.386;2.082;2023-04-03T14:28:51;1142.57;;;808.67;;
55933;SDS011;41839;41.386;2.082;2023-04-03T14:31:18;1130.70;;;790.45;;
55933;SDS011;41839;41.386;2.082;2023-04-03T14:33:44;1155.38;;;806.75;;
55933;SDS011;41839;41.386;2.082;2023-04-03T14:38:41;1138.57;;;799.58;;
55933;SDS011;41839;41.386;2.082;2023-04-03T14:41:07;1156.53;;;822.75;;
55933;SDS011;41839;41.386;2.082;2023-04-03T14:43:35;1152.90;;;820.90;;
55933;SDS011;41839;41.386;2.082;2023-04-03T14:46:01;1143.38;;;794.67;;
55933;SDS011;41839;41.386;2.082;2023-04-03T14:49:51;1142.43;;;792.50;;
55933;SDS011;41839;41.386;2.082;2023-04-03T14:53:22;1141.47;;;795.20;;
55933;SDS011;41839;41.386;2.082;2023-04-03T14:56:19;1152.18;;;818.25;;
55933;SDS011;41839;41.386;2.082;2023-04-03T14:58:51;1145.50;;;809.28;;
55933;SDS011;41839;41.386;2.082;2023-04-03T15:03:32;1142.82;;;807.03;;
55933;SDS011;41839;41.386;2.082;2023-04-03T15:05:57;1140.43;;;789.70;;
55933;SDS011;41839;41.386;2.082;2023-04-03T15:08:25;1136.78;;;812.10;;
55933;SDS011;41839;41.386;2.082;2023-04-03T15:10:54;1133.22;;;812.20;;
55933;SDS011;41839;41.386;2.082;2023-04-03T15:13:21;1139.95;;;817.28;;
55933;SDS011;41839;41.386;2.082;2023-04-03T15:15:48;1133.88;;;800.85;;
55933;SDS011;41839;41.386;2.082;2023-04-03T15:18:16;1144.68;;;829.30;;
55933;SDS011;41839;41.386;2.082;2023-04-03T15:20:47;1141.28;;;833.03;;
55933;SDS011;41839;41.386;2.082;2023-04-03T15:23:13;1140.65;;;816.05;;
55933;SDS011;41839;41.386;2.082;2023-04-03T15:25:41;1138.93;;;812.50;;
55933;SDS011;41839;41.386;2.082;2023-04-03T15:28:09;1142.15;;;808.25;;
55933;SDS011;41839;41.386;2.082;2023-04-03T15:30:42;1132.18;;;800.90;;
55933;SDS011;41839;41.386;2.082;2023-04-03T15:33:08;1130.38;;;804.75;;
55933;SDS011;41839;41.386;2.082;2023-04-03T15:35:33;1132.63;;;792.03;;
55933;SDS011;41839;41.386;2.082;2023-04-03T15:39:19;1132.70;;;787.30;;
55933;SDS011;41839;41.386;2.082;2023-04-03T15:43:47;1119.55;;;807.33;;
55933;SDS011;41839;41.386;2.082;2023-04-03T15:46:13;1137.93;;;810.25;;
55933;SDS011;41839;41.386;2.082;2023-04-03T15:48:38;1138.32;;;818.85;;
55933;SDS011;41839;41.386;2.082;2023-04-03T15:51:05;1132.47;;;807.70;;
55933;SDS011;41839;41.386;2.082;2023-04-03T15:54:24;1132.03;;;803.33;;
55933;SDS011;41839;41.386;2.082;2023-04-03T15:59:31;1132.30;;;793.72;;
55933;SDS011;41839;41.386;2.082;2023-04-03T16:01:57;1131.10;;;787.92;;
55933;SDS011;41839;41.386;2.082;2023-04-03T16:04:25;1131.53;;;796.53;;
55933;SDS011;41839;41.386;2.082;2023-04-03T16:06:50;1074.03;;;786.97;;
55933;SDS011;41839;41.386;2.082;2023-04-03T16:10:02;1040.35;;;785.45;;
55933;SDS011;41839;41.386;2.082;2023-04-03T16:12:28;1017.38;;;787.78;;
55933;SDS011;41839;41.386;2.082;2023-04-03T16:14:54;1012.65;;;790.00;;
55933;SDS011;41839;41.386;2.082;2023-04-03T16:17:19;1005.83;;;784.17;;
55933;SDS011;41839;41.386;2.082;2023-04-03T16:19:45;1024.22;;;817.45;;
55933;SDS011;41839;41.386;2.082;2023-04-03T16:22:10;1013.10;;;798.78;;
55933;SDS011;41839;41.386;2.082;2023-04-03T16:24:36;1007.38;;;801.08;;
55933;SDS011;41839;41.386;2.082;2023-04-03T16:27:03;1000.53;;;808.15;;
55933;SDS011;41839;41.386;2.082;2023-04-03T16:29:28;980.10;;;768.53;;
55933;SDS011;41839;41.386;2.082;2023-04-03T16:31:54;994.92;;;789.88;;
55933;SDS011;41839;41.386;2.082;2023-04-03T16:34:19;999.75;;;777.65;;
55933;SDS011;41839;41.386;2.082;2023-04-03T16:36:45;1008.42;;;795.72;;
55933;SDS011;41839;41.386;2.082;2023-04-03T16:39:11;1007.47;;;794.80;;
55933;SDS011;41839;41.386;2.082;2023-04-03T16:41:36;997.90;;;795.28;;
55933;SDS011;41839;41.386;2.082;2023-04-03T16:44:02;991.38;;;791.92;;
55933;SDS011;41839;41.386;2.082;2023-04-03T16:46:27;992.40;;;789.65;;
55933;SDS011;41839;41.386;2.082;2023-04-03T16:48:53;1006.60;;;796.28;;
55933;SDS011;41839;41.386;2.082;2023-04-03T16:51:18;996.92;;;782.25;;
55933;SDS011;41839;41.386;2.082;2023-04-03T16:53:44;1014.72;;;810.67;;
55933;SDS011;41839;41.386;2.082;2023-04-03T16:56:09;1016.22;;;797.70;;
55933;SDS011;41839;41.386;2.082;2023-04-03T16:58:35;1035.75;;;800.53;;
55933;SDS011;41839;41.386;2.082;2023-04-03T17:01:13;1013.05;;;778.15;;
55933;SDS011;41839;41.386;2.082;2023-04-03T17:03:43;1008.00;;;756.88;;
55933;SDS011;41839;41.386;2.082;2023-04-03T17:06:09;1008.20;;;775.05;;
55933;SDS011;41839;41.386;2.082;2023-04-03T17:08:41;1033.72;;;777.67;;
55933;SDS011;41839;41.386;2.082;2023-04-03T17:11:11;1017.15;;;750.28;;
55933;SDS011;41839;41.386;2.082;2023-04-03T17:13:37;1037.72;;;768.47;;
55933;SDS011;41839;41.386;2.082;2023-04-03T17:16:04;1036.05;;;757.35;;
55933;SDS011;41839;41.386;2.082;2023-04-03T17:18:32;1017.85;;;741.88;;
55933;SDS011;41839;41.386;2.082;2023-04-03T17:20:58;1028.47;;;761.83;;
55933;SDS011;41839;41.386;2.082;2023-04-03T17:23:25;1043.90;;;762.83;;
55933;SDS011;41839;41.386;2.082;2023-04-03T17:25:53;1060.38;;;762.75;;
55933;SDS011;41839;41.386;2.082;2023-04-03T17:28:20;1050.13;;;735.22;;
55933;SDS011;41839;41.386;2.082;2023-04-03T17:30:53;1050.40;;;744.58;;
55933;SDS011;41839;41.386;2.082;2023-04-03T17:33:23;1051.45;;;744.15;;
55933;SDS011;41839;41.386;2.082;2023-04-03T17:35:48;1060.50;;;764.35;;
55933;SDS011;41839;41.386;2.082;2023-04-03T17:38:14;1050.20;;;738.83;;
55933;SDS011;41839;41.386;2.082;2023-04-03T17:40:39;1070.68;;;765.60;;
55933;SDS011;41839;41.386;2.082;2023-04-03T17:43:05;1073.85;;;772.13;;
55933;SDS011;41839;41.386;2.082;2023-04-03T17:45:31;1042.63;;;742.03;;
55933;SDS011;41839;41.386;2.082;2023-04-03T17:47:57;1028.57;;;749.70;;
55933;SDS011;41839;41.386;2.082;2023-04-03T17:50:22;1016.55;;;750.80;;
55933;SDS011;41839;41.386;2.082;2023-04-03T17:52:48;1026.85;;;765.78;;
55933;SDS011;41839;41.386;2.082;2023-04-03T17:55:13;1016.28;;;746.22;;
55933;SDS011;41839;41.386;2.082;2023-04-03T17:57:41;1016.15;;;757.25;;
55933;SDS011;41839;41.386;2.082;2023-04-03T18:00:07;1014.80;;;758.50;;
55933;SDS011;41839;41.386;2.082;2023-04-03T18:02:33;1013.77;;;757.97;;
55933;SDS011;41839;41.386;2.082;2023-04-03T18:04:59;1013.80;;;753.38;;
55933;SDS011;41839;41.386;2.082;2023-04-03T18:07:25;1010.15;;;749.22;;
55933;SDS011;41839;41.386;2.082;2023-04-03T18:09:52;1020.43;;;767.20;;
55933;SDS011;41839;41.386;2.082;2023-04-03T18:12:18;1003.03;;;736.10;;
55933;SDS011;41839;41.386;2.082;2023-04-03T18:14:44;1021.17;;;766.85;;
55933;SDS011;41839;41.386;2.082;2023-04-03T18:17:10;1017.03;;;742.53;;
55933;SDS011;41839;41.386;2.082;2023-04-03T18:19:36;1029.90;;;757.53;;
55933;SDS011;41839;41.386;2.082;2023-04-03T18:22:04;1021.00;;;749.50;;
55933;SDS011;41839;41.386;2.082;2023-04-03T18:24:32;1022.88;;;750.88;;
55933;SDS011;41839;41.386;2.082;2023-04-03T18:27:01;1029.90;;;742.60;;
55933;SDS011;41839;41.386;2.082;2023-04-03T18:52:04;1046.07;;;752.10;;
55933;SDS011;41839;41.386;2.082;2023-04-03T18:54:30;1009.20;;;724.70;;
55933;SDS011;41839;41.386;2.082;2023-04-03T18:56:56;1014.75;;;732.15;;
55933;SDS011;41839;41.386;2.082;2023-04-03T19:37:39;1013.28;;;713.67;;
55933;SDS011;41839;41.386;2.082;2023-04-03T19:40:04;1011.25;;;726.25;;
55933;SDS011;41839;41.386;2.082;2023-04-03T19:42:31;1004.83;;;725.40;;
55933;SDS011;41839;41.386;2.082;2023-04-03T19:44:56;993.38;;;700.22;;
55933;SDS011;41839;41.386;2.082;2023-04-03T19:47:22;1010.65;;;702.47;;
55933;SDS011;41839;41.386;2.082;2023-04-03T19:49:49;1033.80;;;722.70;;
55933;SDS011;41839;41.386;2.082;2023-04-03T19:52:15;1045.20;;;722.42;;
55933;SDS011;41839;41.386;2.082;2023-04-03T19:54:40;1035.90;;;708.10;;
55933;SDS011;41839;41.386;2.082;2023-04-03T19:57:06;1081.78;;;739.97;;
55933;SDS011;41839;41.386;2.082;2023-04-03T19:59:32;1062.43;;;716.35;;
55933;SDS011;41839;41.386;2.082;2023-04-03T20:01:58;1051.20;;;712.08;;
55933;SDS011;41839;41.386;2.082;2023-04-03T20:04:24;1006.10;;;692.55;;
55933;SDS011;41839;41.386;2.082;2023-04-03T20:06:49;1014.22;;;710.95;;
55933;SDS011;41839;41.386;2.082;2023-04-03T20:09:16;1043.80;;;726.33;;
55933;SDS011;41839;41.386;2.082;2023-04-03T20:11:42;1028.22;;;712.72;;
55933;SDS011;41839;41.386;2.082;2023-04-03T20:14:11;1044.57;;;733.45;;
55933;SDS011;41839;41.386;2.082;2023-04-03T20:16:37;1070.28;;;722.97;;
55933;SDS011;41839;41.386;2.082;2023-04-03T20:19:04;1088.53;;;728.83;;
55933;SDS011;41839;41.386;2.082;2023-04-03T20:21:31;960.78;;;706.92;;
55933;SDS011;41839;41.386;2.082;2023-04-03T20:23:58;947.30;;;706.85;;
55933;SDS011;41839;41.386;2.082;2023-04-03T20:26:26;965.22;;;711.05;;
55933;SDS011;41839;41.386;2.082;2023-04-03T20:28:53;955.50;;;719.13;;
55933;SDS011;41839;41.386;2.082;2023-04-03T20:31:20;936.85;;;734.28;;
55933;SDS011;41839;41.386;2.082;2023-04-03T20:33:47;945.90;;;755.10;;
55933;SDS011;41839;41.386;2.082;2023-04-03T20:36:14;932.65;;;736.28;;
55933;SDS011;41839;41.386;2.082;2023-04-03T20:38:40;999.85;;;738.38;;
55933;SDS011;41839;41.386;2.082;2023-04-03T20:41:06;906.88;;;752.65;;
55933;SDS011;41839;41.386;2.082;2023-04-03T20:43:33;884.10;;;754.28;;
55933;SDS011;41839;41.386;2.082;2023-04-03T20:45:59;889.83;;;763.28;;
55933;SDS011;41839;41.386;2.082;2023-04-03T20:50:11;876.30;;;760.33;;
55933;SDS011;41839;41.386;2.082;2023-04-03T20:52:36;864.50;;;741.33;;
55933;SDS011;41839;41.386;2.082;2023-04-03T20:55:02;862.25;;;754.20;;
55933;SDS011;41839;41.386;2.082;2023-04-03T20:57:45;849.40;;;740.70;;
55933;SDS011;41839;41.386;2.082;2023-04-03T21:00:11;858.15;;;748.38;;
55933;SDS011;41839;41.386;2.082;2023-04-03T21:04:11;856.00;;;760.30;;
55933;SDS011;41839;41.386;2.082;2023-04-03T21:19:53;857.13;;;745.30;;
55933;SDS011;41839;41.386;2.082;2023-04-03T21:22:19;886.22;;;764.30;;
55933;SDS011;41839;41.386;2.082;2023-04-03T21:24:45;918.83;;;773.95;;
55933;SDS011;41839;41.386;2.082;2023-04-03T21:27:11;903.17;;;790.90;;
55933;SDS011;41839;41.386;2.082;2023-04-03T21:29:36;913.55;;;779.88;;
55933;SDS011;41839;41.386;2.082;2023-04-03T21:32:02;892.33;;;766.53;;
55933;SDS011;41839;41.386;2.082;2023-04-03T21:34:28;893.95;;;757.55;;
55933;SDS011;41839;41.386;2.082;2023-04-03T21:36:55;891.25;;;773.25;;
55933;SDS011;41839;41.386;2.082;2023-04-03T21:39:27;910.60;;;766.33;;
55933;SDS011;41839;41.386;2.082;2023-04-03T21:41:53;866.00;;;770.35;;
55933;SDS011;41839;41.386;2.082;2023-04-03T21:44:19;1000.10;;;783.70;;
55933;SDS011;41839;41.386;2.082;2023-04-03T21:46:45;959.78;;;778.35;;
55933;SDS011;41839;41.386;2.082;2023-04-03T21:49:11;897.08;;;800.58;;
55933;SDS011;41839;41.386;2.082;2023-04-03T21:51:37;855.60;;;761.78;;
55933;SDS011;41839;41.386;2.082;2023-04-03T21:54:03;853.30;;;760.13;;
55933;SDS011;41839;41.386;2.082;2023-04-03T21:56:29;901.53;;;759.10;;
55933;SDS011;41839;41.386;2.082;2023-04-03T22:00:09;899.78;;;769.50;;
55933;SDS011;41839;41.386;2.082;2023-04-03T22:02:56;908.25;;;763.20;;
